Time;durP1;ratioP1;P1;durP2;ratioP2;P2;SDS_P1;SDS_P2;PMS_P1;PMS_P2;Temp;Humidity;BMP_temperature;BMP_pressure;BME280_temperature;BME280_humidity;BME280_pressure;Samples;Min_cycle;Max_cycle;Signal;HPM_P1;HPM_P2
2022/10/19 00:01:13;;;;;;;11.90;7.03;;;;;;;8.00;73.50;97640.22;5089003;28;20243;-77
2022/10/19 00:03:42;;;;;;;9.20;8.20;;;;;;;8.17;72.03;97625.16;5089088;28;20195;-78
2022/10/19 00:06:25;;;;;;;12.87;9.07;;;;;;;8.27;71.23;97624.94;5088993;28;20216;-77
2022/10/19 00:09:03;;;;;;;10.03;8.23;;;;;;;8.33;71.49;97617.00;5088590;28;20215;-76
2022/10/19 00:11:31;;;;;;;13.17;8.60;;;;;;;8.30;71.53;97619.69;5088514;28;20216;-78
2022/10/19 00:13:59;;;;;;;9.83;7.87;;;;;;;8.21;71.40;97600.97;5088476;28;20204;-78
2022/10/19 00:16:30;;;;;;;13.50;8.07;;;;;;;8.30;71.64;97617.13;5088694;28;20296;-77
2022/10/19 00:18:59;;;;;;;14.00;7.80;;;;;;;8.27;71.54;97601.72;5088746;28;20200;-79
2022/10/19 00:21:29;;;;;;;13.50;8.27;;;;;;;8.45;71.45;97606.38;5087561;28;20254;-79
2022/10/19 00:23:57;;;;;;;11.73;7.80;;;;;;;8.53;71.10;97587.19;5088607;28;20295;-79
2022/10/19 00:26:26;;;;;;;10.43;7.53;;;;;;;8.55;70.40;97589.75;5088382;28;20660;-78
2022/10/19 00:28:54;;;;;;;10.77;7.07;;;;;;;8.60;70.60;97593.88;5088567;28;20189;-79
2022/10/19 00:31:24;;;;;;;8.40;6.90;;;;;;;8.49;70.17;97553.78;5088235;28;20185;-78
2022/10/19 00:33:53;;;;;;;10.67;8.10;;;;;;;8.42;69.82;97573.75;5088132;28;20223;-78
2022/10/19 00:36:28;;;;;;;11.53;8.03;;;;;;;8.05;71.65;97578.22;5086687;28;20247;-77
2022/10/19 00:38:57;;;;;;;12.40;7.33;;;;;;;7.86;73.22;97572.72;5088289;28;20195;-77
2022/10/19 00:41:30;;;;;;;13.77;7.90;;;;;;;7.76;74.69;97570.41;5087973;28;20569;-76
2022/10/19 00:44:02;;;;;;;9.93;7.47;;;;;;;7.71;74.40;97572.25;5088013;28;20283;-76
2022/10/19 00:46:33;;;;;;;13.27;8.03;;;;;;;7.56;75.61;97565.78;5072475;28;20206;-77
2022/10/19 00:49:08;;;;;;;12.90;8.93;;;;;;;7.49;75.71;97556.50;5088280;28;20176;-79
2022/10/19 00:51:41;;;;;;;10.70;7.50;;;;;;;7.46;76.19;97560.91;5086749;28;20206;-77
2022/10/19 00:54:08;;;;;;;11.87;7.83;;;;;;;7.50;75.73;97545.28;5087739;28;20686;-77
2022/10/19 00:56:40;;;;;;;12.53;8.03;;;;;;;7.45;75.90;97539.44;5086487;28;20199;-78
2022/10/19 00:59:08;;;;;;;10.70;7.20;;;;;;;7.55;76.02;97542.59;5087839;28;20668;-78
2022/10/19 01:01:36;;;;;;;13.07;8.60;;;;;;;7.48;76.17;97544.47;5088082;28;20184;-77
2022/10/19 01:04:03;;;;;;;11.17;8.53;;;;;;;7.40;76.11;97533.53;5087632;28;20200;-78
2022/10/19 01:06:32;;;;;;;11.20;8.97;;;;;;;7.09;77.86;97517.19;5087476;28;20183;-78
2022/10/19 01:08:59;;;;;;;14.13;8.70;;;;;;;7.11;78.66;97534.25;5087686;28;20201;-77
2022/10/19 01:11:57;;;;;;;12.90;8.77;;;;;;;7.08;77.74;97533.50;5087531;28;20659;-78
2022/10/19 01:14:46;;;;;;;12.77;8.17;;;;;;;7.17;78.17;97525.56;5086483;28;20282;-78
2022/10/19 01:17:40;;;;;;;11.73;7.97;;;;;;;7.10;77.43;97521.44;5087800;28;20299;-77
2022/10/19 01:20:45;;;;;;;11.57;7.40;;;;;;;7.10;77.85;97524.00;5087567;28;20180;-77
2022/10/19 01:23:28;;;;;;;11.53;7.43;;;;;;;7.17;76.95;97525.56;5087308;28;20209;-77
2022/10/19 01:26:01;;;;;;;12.10;7.70;;;;;;;7.08;78.04;97523.19;5087353;28;20199;-77
2022/10/19 01:28:50;;;;;;;11.43;7.53;;;;;;;6.96;77.83;97516.63;5087402;28;20203;-77
2022/10/19 01:31:31;;;;;;;13.47;7.93;;;;;;;6.83;78.36;97504.06;5087027;28;20191;-77
2022/10/19 01:34:18;;;;;;;10.03;7.83;;;;;;;6.83;78.54;97497.19;5086841;28;20212;-78
2022/10/19 01:37:16;;;;;;;11.83;8.73;;;;;;;6.92;78.66;97504.72;5087144;28;20658;-77
2022/10/19 01:39:51;;;;;;;14.00;8.23;;;;;;;6.98;78.63;97508.84;5087131;28;20219;-78
2022/10/19 01:42:35;;;;;;;16.03;9.23;;;;;;;7.06;77.78;97501.78;5087300;28;20206;-77
2022/10/19 01:45:29;;;;;;;11.07;8.17;;;;;;;7.06;78.46;97504.38;5090159;28;20605;-77
2022/10/19 01:48:11;;;;;;;12.57;8.07;;;;;;;7.07;77.38;97501.75;5085542;28;21004;-77
2022/10/19 01:50:44;;;;;;;10.53;7.97;;;;;;;6.94;78.14;97497.78;5086667;28;20184;-76
2022/10/19 01:53:13;;;;;;;11.97;8.20;;;;;;;6.94;77.23;97490.06;5086853;28;20406;-77
2022/10/19 01:55:44;;;;;;;12.73;8.57;;;;;;;6.87;78.93;97497.97;5085530;28;20243;-78
2022/10/19 01:58:16;;;;;;;9.27;7.37;;;;;;;6.69;79.24;97494.09;5085629;28;20195;-77
2022/10/19 02:00:47;;;;;;;11.33;7.40;;;;;;;6.71;78.57;97497.47;5087077;28;20686;-78
2022/10/19 02:03:15;;;;;;;10.03;7.97;;;;;;;6.76;78.01;97479.38;5087190;28;20284;-76
2022/10/19 02:05:44;;;;;;;11.60;7.47;;;;;;;6.66;78.63;97488.19;5086852;28;20275;-77
2022/10/19 02:08:16;;;;;;;10.27;7.53;;;;;;;6.66;78.10;97489.00;5085561;28;20202;-77
2022/10/19 02:10:45;;;;;;;13.67;9.30;;;;;;;6.66;78.61;97483.03;5086801;28;20222;-77
2022/10/19 02:13:14;;;;;;;12.53;10.00;;;;;;;6.52;77.51;97473.91;5086750;28;20277;-78
2022/10/19 02:16:07;;;;;;;12.33;8.87;;;;;;;6.48;78.22;97474.84;5085569;28;20233;-76
2022/10/19 02:18:39;;;;;;;12.37;8.90;;;;;;;6.33;78.26;97475.19;5085516;28;20190;-76
2022/10/19 02:21:06;;;;;;;13.50;8.33;;;;;;;6.39;77.63;97475.06;5086613;28;20191;-77
2022/10/19 02:23:34;;;;;;;12.67;8.67;;;;;;;6.62;77.10;97471.09;5086446;28;20274;-77
2022/10/19 02:26:01;;;;;;;11.77;7.63;;;;;;;6.59;77.09;97472.88;5086407;28;20677;-77
2022/10/19 02:28:29;;;;;;;9.27;7.53;;;;;;;6.76;76.63;97476.78;5086554;28;20688;-77
2022/10/19 02:30:58;;;;;;;9.40;7.93;;;;;;;6.70;76.17;97464.91;5085443;28;20662;-78
2022/10/19 02:33:27;;;;;;;10.30;7.53;;;;;;;6.88;76.76;97466.19;5086702;28;20291;-77
2022/10/19 02:35:54;;;;;;;9.63;7.77;;;;;;;6.95;75.45;97460.00;5086407;28;20635;-77
2022/10/19 02:38:23;;;;;;;10.10;7.40;;;;;;;7.13;75.19;97452.66;5085194;28;20280;-77
2022/10/19 02:41:15;;;;;;;13.03;8.70;;;;;;;7.08;74.96;97458.81;5088512;28;20197;-76
2022/10/19 02:43:46;;;;;;;13.83;8.23;;;;;;;7.06;75.77;97455.44;5087922;28;20195;-77
2022/10/19 02:46:17;;;;;;;9.90;8.37;;;;;;;7.00;75.81;97455.59;5086619;28;20219;-78
2022/10/19 02:48:45;;;;;;;12.73;9.87;;;;;;;6.96;75.96;97451.41;5086466;28;20208;-77
2022/10/19 02:51:35;;;;;;;12.63;10.00;;;;;;;6.88;76.56;97446.47;5086488;28;20585;-77
2022/10/19 02:54:05;;;;;;;12.63;9.77;;;;;;;6.66;76.91;97447.84;5086258;28;20193;-78
2022/10/19 02:56:34;;;;;;;14.17;9.87;;;;;;;6.59;77.00;97457.44;5086330;28;20226;-78
2022/10/19 02:59:02;;;;;;;11.37;9.60;;;;;;;6.59;76.97;97451.47;5086300;28;20186;-77
2022/10/19 03:01:29;;;;;;;11.60;8.63;;;;;;;6.67;76.20;97448.69;5086298;28;20212;-78
2022/10/19 03:03:56;;;;;;;12.37;8.97;;;;;;;6.74;75.81;97440.78;5087596;28;20726;-78
2022/10/19 03:06:23;;;;;;;12.13;8.50;;;;;;;6.76;75.05;97444.16;5089108;28;20241;-77
2022/10/19 03:08:50;;;;;;;13.80;8.07;;;;;;;6.79;76.28;97430.38;5089958;28;20732;-77
2022/10/19 03:11:19;;;;;;;11.47;8.27;;;;;;;6.89;74.28;97427.53;5089723;28;20183;-77
2022/10/19 03:13:46;;;;;;;12.37;8.47;;;;;;;6.97;74.82;97428.19;5089839;28;20183;-76
2022/10/19 03:16:18;;;;;;;12.57;7.70;;;;;;;7.08;73.70;97439.06;5089412;28;20223;-77
2022/10/19 03:18:47;;;;;;;11.03;8.47;;;;;;;7.12;73.96;97430.38;5088520;28;20180;-77
2022/10/19 03:21:14;;;;;;;14.13;8.70;;;;;;;7.10;73.72;97432.16;5089855;28;20184;-78
2022/10/19 03:23:42;;;;;;;11.13;7.83;;;;;;;7.15;71.89;97424.31;5088130;28;20748;-76
2022/10/19 03:26:13;;;;;;;11.10;8.30;;;;;;;7.10;71.99;97428.72;5089478;28;20598;-75
2022/10/19 03:28:40;;;;;;;9.70;7.83;;;;;;;6.96;70.86;97418.78;5089252;28;20191;-77
2022/10/19 03:31:07;;;;;;;17.17;8.63;;;;;;;6.95;71.58;97421.38;5088047;28;20220;-78
2022/10/19 03:33:35;;;;;;;15.07;8.97;;;;;;;6.75;71.15;97433.91;5087704;28;20223;-77
2022/10/19 03:36:36;;;;;;;12.97;8.40;;;;;;;6.20;72.95;97395.78;5087787;28;20231;-77
2022/10/19 03:39:07;;;;;;;12.47;8.57;;;;;;;6.23;72.61;97426.56;5079274;28;20688;-80
2022/10/19 03:41:36;;;;;;;14.67;6.97;;;;;;;6.29;73.17;97429.00;5090652;28;20596;-77
2022/10/19 03:44:04;;;;;;;10.93;7.83;;;;;;;6.15;72.48;97424.16;5089057;28;20218;-79
2022/10/19 03:46:31;;;;;;;8.63;6.77;;;;;;;6.22;73.59;97424.88;5089520;28;20194;-79
2022/10/19 03:48:59;;;;;;;8.83;6.60;;;;;;;6.21;74.31;97400.91;5054523;28;20626;-79
2022/10/19 03:51:31;;;;;;;9.00;5.90;;;;;;;6.45;73.50;97420.06;5077499;28;20195;-78
2022/10/19 03:54:05;;;;;;;9.43;6.23;;;;;;;6.54;72.58;97415.53;5060442;28;20579;-78
2022/10/19 03:56:33;;;;;;;12.57;8.30;;;;;;;6.45;73.55;97405.47;5047393;28;20249;-77
2022/10/19 03:59:02;;;;;;;11.87;6.70;;;;;;;6.66;73.06;97408.41;5047504;28;20207;-77
2022/10/19 04:01:38;;;;;;;10.10;6.60;;;;;;;6.29;73.74;97400.72;5048829;28;20199;-77
2022/10/19 04:04:09;;;;;;;11.13;7.17;;;;;;;6.13;74.99;97409.66;5047190;28;20188;-78
2022/10/19 04:06:38;;;;;;;8.07;5.67;;;;;;;5.71;77.54;97365.13;5048378;28;20262;-78
2022/10/19 04:09:07;;;;;;;10.97;5.93;;;;;;;5.90;79.02;97402.44;5047386;28;20196;-79
2022/10/19 04:11:34;;;;;;;7.53;5.57;;;;;;;5.83;81.12;97400.88;5055238;28;20590;-79
2022/10/19 04:14:01;;;;;;;8.33;5.90;;;;;;;5.81;81.43;97400.06;5079167;28;20267;-79
2022/10/19 04:16:29;;;;;;;11.83;6.33;;;;;;;5.88;81.33;97396.50;5081503;28;20215;-79
2022/10/19 04:18:58;;;;;;;7.93;5.50;;;;;;;6.01;82.57;97399.66;5078216;28;20217;-80
2022/10/19 04:21:25;;;;;;;7.47;5.00;;;;;;;6.06;83.04;97393.50;5068504;28;20529;-79
2022/10/19 04:24:04;;;;;;;11.27;5.90;;;;;;;6.12;82.92;97384.84;5082348;28;21201;-80
2022/10/19 04:26:32;;;;;;;6.30;5.07;;;;;;;6.11;82.25;97368.56;5086540;28;20188;-80
2022/10/19 04:29:00;;;;;;;7.70;5.10;;;;;;;6.31;80.63;97386.94;5066557;28;20184;-79
2022/10/19 04:31:27;;;;;;;9.80;6.03;;;;;;;6.37;80.57;97389.38;5067903;28;20198;-79
2022/10/19 04:33:55;;;;;;;11.50;5.80;;;;;;;6.51;80.14;97379.59;5068435;28;20605;-79
2022/10/19 04:36:23;;;;;;;12.87;7.60;;;;;;;6.65;78.42;97383.56;5068753;28;20219;-77
2022/10/19 04:38:50;;;;;;;13.43;7.80;;;;;;;6.71;77.48;97380.81;5070437;28;20694;-80
2022/10/19 04:41:20;;;;;;;17.63;9.27;;;;;;;6.77;76.21;97376.38;5066894;28;20186;-78
2022/10/19 04:43:49;;;;;;;15.73;9.63;;;;;;;6.76;76.39;97376.41;5068580;28;20192;-79
2022/10/19 04:46:18;;;;;;;17.63;9.50;;;;;;;6.87;76.35;97374.41;5068711;28;20185;-78
2022/10/19 04:48:47;;;;;;;20.97;10.20;;;;;;;6.80;75.45;97375.47;5034004;28;20200;-78
2022/10/19 04:51:15;;;;;;;12.47;8.20;;;;;;;6.63;75.92;97375.88;5068154;28;20204;-79
2022/10/19 04:53:43;;;;;;;21.13;8.27;;;;;;;6.65;76.41;97373.25;5067533;28;20259;-78
2022/10/19 04:56:17;;;;;;;10.17;6.13;;;;;;;6.73;77.70;97379.91;5067383;28;20770;-79
2022/10/19 04:58:45;;;;;;;10.70;6.47;;;;;;;6.76;77.07;97382.38;5066563;28;20188;-78
2022/10/19 05:01:15;;;;;;;7.73;6.63;;;;;;;6.82;77.10;97378.84;5067775;28;20184;-82
2022/10/19 05:03:43;;;;;;;10.23;6.10;;;;;;;6.78;75.95;97379.81;5067759;28;20822;-79
2022/10/19 05:06:12;;;;;;;14.03;7.03;;;;;;;6.89;75.89;97381.19;5066067;28;20565;-79
2022/10/19 05:08:40;;;;;;;11.13;6.80;;;;;;;7.07;75.01;97382.44;5074961;28;20202;-81
2022/10/19 05:11:10;;;;;;;12.30;7.17;;;;;;;7.32;75.48;97375.75;5066356;28;20218;-79
2022/10/19 05:13:38;;;;;;;9.13;6.40;;;;;;;7.19;74.99;97377.00;5069683;28;20196;-83
2022/10/19 05:16:09;;;;;;;17.17;7.83;;;;;;;7.25;73.96;97381.97;5090712;28;20774;-81
2022/10/19 05:18:37;;;;;;;14.80;8.17;;;;;;;7.32;73.42;97383.47;5071502;28;20646;-80
2022/10/19 05:21:10;;;;;;;14.77;9.00;;;;;;;7.28;72.88;97380.16;5091251;28;20187;-78
2022/10/19 05:23:38;;;;;;;17.00;9.33;;;;;;;7.22;72.80;97367.44;5091212;28;20192;-79
2022/10/19 05:26:11;;;;;;;14.93;9.33;;;;;;;7.33;72.54;97374.88;5088102;28;20199;-77
2022/10/19 05:28:38;;;;;;;14.27;8.37;;;;;;;7.32;71.90;97378.31;5088514;28;20279;-79
2022/10/19 05:31:10;;;;;;;11.50;7.90;;;;;;;7.45;73.10;97390.00;5088450;28;20179;-79
2022/10/19 05:33:38;;;;;;;12.13;8.47;;;;;;;7.57;71.99;97384.47;5091497;28;20230;-80
2022/10/19 05:36:26;;;;;;;15.33;9.53;;;;;;;7.73;72.29;97366.88;5089836;28;20232;-80
2022/10/19 05:38:56;;;;;;;19.77;14.53;;;;;;;7.80;71.09;97384.66;5086930;28;20195;-79
2022/10/19 05:41:25;;;;;;;18.83;12.90;;;;;;;7.73;71.12;97370.25;5087272;28;20192;-80
2022/10/19 05:43:55;;;;;;;18.80;10.77;;;;;;;7.70;72.23;97385.84;5085590;28;20302;-77
2022/10/19 05:46:26;;;;;;;15.50;9.47;;;;;;;7.84;72.25;97373.38;5085664;28;20564;-81
2022/10/19 05:48:55;;;;;;;10.20;7.10;;;;;;;8.11;71.24;97375.13;5069683;28;20276;-79
2022/10/19 05:51:23;;;;;;;14.80;8.60;;;;;;;8.00;71.21;97377.19;5086791;28;20314;-79
2022/10/19 05:53:52;;;;;;;12.23;8.17;;;;;;;8.06;70.98;97377.00;5086642;28;20185;-79
2022/10/19 05:56:22;;;;;;;13.83;7.43;;;;;;;8.19;72.39;97369.72;5086475;28;20226;-79
2022/10/19 05:58:50;;;;;;;16.13;7.63;;;;;;;8.54;69.72;97386.69;5085655;28;20242;-79
2022/10/19 06:01:19;;;;;;;18.80;7.87;;;;;;;8.77;70.27;97377.31;5077490;28;20188;-78
2022/10/19 06:03:50;;;;;;;11.73;7.63;;;;;;;8.83;69.43;97381.44;5054291;28;20200;-79
2022/10/19 06:06:20;;;;;;;11.67;8.13;;;;;;;8.85;69.78;97369.31;5055272;28;20676;-77
2022/10/19 06:08:48;;;;;;;10.37;7.23;;;;;;;9.03;69.41;97384.19;5087971;28;20216;-78
2022/10/19 06:11:21;;;;;;;11.90;8.73;;;;;;;9.09;69.05;97365.88;5086611;28;20194;-79
2022/10/19 06:13:50;;;;;;;8.70;7.40;;;;;;;9.20;69.84;97387.03;5086340;28;20647;-79
2022/10/19 06:16:19;;;;;;;10.70;7.50;;;;;;;9.45;68.78;97385.28;5086321;28;20265;-80
2022/10/19 06:18:48;;;;;;;9.90;6.40;;;;;;;9.49;68.20;97384.28;5087024;28;20254;-80
2022/10/19 06:21:17;;;;;;;12.57;6.63;;;;;;;9.52;68.64;97384.16;5084937;28;20582;-80
2022/10/19 06:23:52;;;;;;;12.33;7.20;;;;;;;9.66;67.79;97374.16;5087851;28;20387;-79
2022/10/19 06:26:21;;;;;;;14.17;9.10;;;;;;;9.78;67.93;97378.88;5086303;28;20199;-79
2022/10/19 06:28:50;;;;;;;10.07;6.67;;;;;;;9.92;67.86;97383.53;5086991;28;20184;-80
2022/10/19 06:31:18;;;;;;;11.30;6.37;;;;;;;9.90;68.16;97377.56;5085805;28;20195;-78
2022/10/19 06:33:45;;;;;;;10.77;6.73;;;;;;;10.03;68.46;97377.94;5087365;28;20244;-79
2022/10/19 06:36:18;;;;;;;9.97;6.73;;;;;;;9.94;68.31;97344.66;5086693;28;20537;-79
2022/10/19 06:38:48;;;;;;;10.57;7.40;;;;;;;10.14;68.52;97360.31;5090870;28;20675;-80
2022/10/19 06:41:16;;;;;;;10.30;7.27;;;;;;;10.30;68.11;97351.03;5091028;28;20246;-79
2022/10/19 06:43:53;;;;;;;13.27;7.43;;;;;;;10.60;67.48;97362.75;5089943;28;20189;-79
2022/10/19 06:46:24;;;;;;;9.53;6.53;;;;;;;10.59;67.42;97345.53;5090117;28;20189;-78
2022/10/19 06:48:59;;;;;;;11.10;7.60;;;;;;;10.72;67.14;97359.66;5088712;28;20203;-78
2022/10/19 06:51:31;;;;;;;9.90;7.40;;;;;;;10.96;67.40;97353.47;5090824;28;20177;-81
2022/10/19 06:53:58;;;;;;;11.87;7.10;;;;;;;10.99;66.61;97337.78;5088977;28;20188;-80
2022/10/19 06:56:26;;;;;;;14.87;7.90;;;;;;;11.11;66.31;97321.69;5088365;28;20324;-79
2022/10/19 06:58:57;;;;;;;9.60;6.67;;;;;;;11.46;66.38;97354.69;5088418;28;20198;-79
2022/10/19 07:01:25;;;;;;;10.50;7.50;;;;;;;11.68;66.05;97344.25;5090624;28;20187;-79
2022/10/19 07:03:54;;;;;;;13.33;8.33;;;;;;;11.84;65.27;97336.59;5089763;28;20572;-78
2022/10/19 07:06:22;;;;;;;11.83;6.77;;;;;;;11.86;64.79;97330.44;5055252;28;20700;-79
2022/10/19 07:08:53;;;;;;;11.20;7.60;;;;;;;12.01;64.85;97332.28;5089770;28;20584;-80
2022/10/19 07:11:32;;;;;;;12.63;7.73;;;;;;;12.15;64.65;97340.31;5089037;28;20237;-81
2022/10/19 07:13:59;;;;;;;9.90;7.23;;;;;;;12.35;64.15;97333.31;5057196;28;20229;-78
2022/10/19 07:16:28;;;;;;;8.47;6.97;;;;;;;12.40;63.66;97332.19;5059436;28;20318;-78
2022/10/19 07:18:55;;;;;;;9.50;6.67;;;;;;;12.42;63.24;97313.91;5088770;28;20638;-79
2022/10/19 07:21:25;;;;;;;13.23;7.37;;;;;;;12.55;62.52;97321.03;5090043;28;20189;-80
2022/10/19 07:23:52;;;;;;;9.43;7.37;;;;;;;12.80;62.24;97329.28;5088822;28;20260;-80
2022/10/19 07:26:25;;;;;;;11.70;7.53;;;;;;;12.87;61.67;97327.25;5090575;28;20269;-79
2022/10/19 07:28:55;;;;;;;20.20;9.03;;;;;;;13.10;61.55;97341.72;5091108;28;20628;-79
2022/10/19 07:31:24;;;;;;;17.97;9.97;;;;;;;13.10;60.62;97331.31;5089839;28;20196;-79
2022/10/19 07:33:53;;;;;;;12.27;8.23;;;;;;;13.28;59.91;97346.81;5087023;28;20252;-79
2022/10/19 07:36:21;;;;;;;12.20;8.83;;;;;;;13.27;60.19;97320.88;5088443;28;20228;-77
2022/10/19 07:38:50;;;;;;;11.83;8.10;;;;;;;13.57;59.62;97340.94;5088887;28;20243;-79
2022/10/19 07:41:21;;;;;;;13.90;7.40;;;;;;;13.55;60.15;97340.19;5088328;28;20188;-78
2022/10/19 07:43:50;;;;;;;8.27;6.53;;;;;;;13.60;59.96;97337.34;5088525;28;20194;-78
2022/10/19 07:46:22;;;;;;;14.60;8.10;;;;;;;13.70;60.25;97328.13;5088394;28;20306;-78
2022/10/19 07:48:50;;;;;;;10.53;8.10;;;;;;;13.78;60.64;97320.72;5087544;28;20224;-80
2022/10/19 07:51:19;;;;;;;10.60;7.97;;;;;;;13.83;60.39;97318.69;5087892;28;20194;-80
2022/10/19 07:53:46;;;;;;;13.93;7.13;;;;;;;13.98;60.38;97315.28;5086265;28;20197;-80
2022/10/19 07:56:31;;;;;;;11.13;7.30;;;;;;;14.03;60.92;97323.69;5086013;28;20233;-79
2022/10/19 07:59:00;;;;;;;12.43;5.93;;;;;;;14.06;61.44;97310.47;5070233;28;20299;-80
2022/10/19 08:01:31;;;;;;;9.03;6.07;;;;;;;14.22;61.86;97311.31;5087163;28;20199;-79
2022/10/19 08:03:59;;;;;;;11.80;6.10;;;;;;;14.38;61.90;97312.19;5086611;28;20202;-78
2022/10/19 08:06:49;;;;;;;8.43;5.37;;;;;;;14.44;62.97;97309.22;5087638;28;20278;-79
2022/10/19 08:09:18;;;;;;;10.07;5.03;;;;;;;14.54;62.29;97306.94;5088900;28;20283;-80
2022/10/19 08:12:05;;;;;;;6.53;4.57;;;;;;;14.38;62.10;97299.16;5066819;28;20566;-78
2022/10/19 08:14:34;;;;;;;10.40;4.67;;;;;;;14.54;61.45;97304.31;5067824;28;20286;-79
2022/10/19 08:17:02;;;;;;;10.57;5.40;;;;;;;14.54;61.40;97299.09;5066529;28;20232;-80
2022/10/19 08:19:33;;;;;;;9.90;6.73;;;;;;;14.70;60.73;97302.50;5068334;28;20232;-79
2022/10/19 08:22:00;;;;;;;27.83;11.43;;;;;;;14.62;60.95;97292.53;5070776;28;20189;-80
2022/10/19 08:24:39;;;;;;;28.00;6.83;;;;;;;14.79;59.64;97275.06;5086976;28;20204;-77
2022/10/19 08:27:07;;;;;;;15.33;6.40;;;;;;;14.98;58.81;97283.50;5090817;28;20196;-78
2022/10/19 08:29:35;;;;;;;19.77;9.20;;;;;;;15.06;58.40;97284.72;5087201;28;20182;-79
2022/10/19 08:32:08;;;;;;;11.03;5.13;;;;;;;15.32;57.44;97290.97;5089318;28;20197;-80
2022/10/19 08:34:38;;;;;;;7.43;4.67;;;;;;;15.34;56.05;97266.47;5087977;28;20311;-80
2022/10/19 08:37:05;;;;;;;12.17;4.60;;;;;;;15.51;56.13;97275.91;5083947;28;20310;-79
2022/10/19 08:39:55;;;;;;;8.23;3.97;;;;;;;15.54;55.54;97282.72;5066866;28;20665;-79
2022/10/19 08:42:30;;;;;;;6.83;4.57;;;;;;;15.59;55.46;97270.19;5067011;28;20212;-78
2022/10/19 08:45:07;;;;;;;15.50;6.23;;;;;;;15.73;55.27;97276.25;5067270;28;20733;-78
2022/10/19 08:47:52;;;;;;;14.80;7.07;;;;;;;15.82;55.13;97278.28;5066940;28;20202;-80
2022/10/19 08:50:41;;;;;;;10.20;4.90;;;;;;;16.04;54.17;97276.00;5066896;28;20264;-80
2022/10/19 08:53:15;;;;;;;15.07;5.40;;;;;;;16.16;53.42;97272.59;5076160;28;20223;-79
2022/10/19 08:56:04;;;;;;;9.70;4.93;;;;;;;16.12;52.82;97275.50;5029025;28;20252;-78
2022/10/19 08:58:59;;;;;;;7.30;4.87;;;;;;;16.20;51.79;97266.22;5047578;28;20182;-80
2022/10/19 09:01:47;;;;;;;6.20;4.07;;;;;;;16.30;51.51;97256.00;5046084;28;20190;-75
2022/10/19 09:04:46;;;;;;;8.10;4.40;;;;;;;16.24;50.86;97262.47;5046804;28;20223;-78
2022/10/19 09:07:52;;;;;;;10.03;4.10;;;;;;;16.38;50.31;97255.53;5046816;28;20292;-79
2022/10/19 09:10:32;;;;;;;10.67;4.60;;;;;;;16.54;51.48;97251.00;5046801;28;20209;-80
2022/10/19 09:13:10;;;;;;;11.80;4.03;;;;;;;16.55;52.14;97250.06;5046498;28;20739;-78
2022/10/19 09:15:44;;;;;;;8.40;4.50;;;;;;;16.71;51.62;97248.13;5047376;28;20217;-80
2022/10/19 09:18:24;;;;;;;9.90;5.43;;;;;;;16.84;50.36;97236.72;5046304;28;20227;-77
2022/10/19 09:21:09;;;;;;;8.73;4.33;;;;;;;17.01;49.69;97243.41;5046523;28;20190;-80
2022/10/19 09:23:41;;;;;;;7.80;3.13;;;;;;;16.96;48.38;97233.25;5049168;28;20182;-78
2022/10/19 09:26:21;;;;;;;7.07;3.40;;;;;;;17.09;47.77;97235.88;5048453;28;20182;-78
2022/10/19 09:29:33;;;;;;;5.83;3.27;;;;;;;17.20;45.28;97227.28;5045585;28;20754;-79
2022/10/19 09:32:04;;;;;;;5.87;3.10;;;;;;;17.17;44.97;97230.09;5042852;28;20194;-80
2022/10/19 09:34:40;;;;;;;6.93;2.93;;;;;;;17.29;44.67;97231.91;5044717;28;20310;-79
2022/10/19 09:37:07;;;;;;;8.37;3.70;;;;;;;17.38;45.11;97221.63;5045606;28;20224;-78
2022/10/19 09:39:34;;;;;;;11.07;3.60;;;;;;;17.49;45.54;97223.50;5046409;28;20200;-78
2022/10/19 09:42:35;;;;;;;10.90;3.10;;;;;;;17.45;44.24;97222.88;5046635;28;20192;-79
2022/10/19 09:45:16;;;;;;;7.37;3.23;;;;;;;17.50;42.90;97220.78;5046477;28;20585;-81
2022/10/19 09:47:47;;;;;;;7.70;3.60;;;;;;;17.63;43.74;97207.66;5046408;28;20197;-78
2022/10/19 09:50:17;;;;;;;6.07;3.10;;;;;;;17.60;43.73;97213.09;5047560;28;20847;-79
2022/10/19 09:52:54;;;;;;;6.27;3.80;;;;;;;17.62;42.35;97209.44;5045832;28;20190;-79
2022/10/19 09:55:34;;;;;;;3.93;2.67;;;;;;;17.74;43.05;97208.56;5046485;28;20285;-77
2022/10/19 09:58:11;;;;;;;6.30;3.17;;;;;;;17.85;42.59;97206.03;5046307;28;20219;-80
2022/10/19 10:00:42;;;;;;;4.53;3.20;;;;;;;17.88;42.20;97210.22;5046262;28;20206;-80
2022/10/19 10:03:22;;;;;;;13.40;4.60;;;;;;;17.90;42.36;97205.69;5046686;28;20574;-79
2022/10/19 10:05:50;;;;;;;11.77;4.30;;;;;;;18.07;41.80;97194.84;5046219;28;20249;-79
2022/10/19 10:08:21;;;;;;;6.27;3.30;;;;;;;17.93;41.55;97181.06;5045289;28;20187;-79
2022/10/19 10:11:05;;;;;;;5.60;3.47;;;;;;;17.78;41.85;97154.19;5045717;28;20718;-78
2022/10/19 10:13:49;;;;;;;29.73;6.40;;;;;;;18.13;41.84;97177.81;5049506;28;20704;-79
2022/10/19 10:16:19;;;;;;;9.67;3.23;;;;;;;18.02;41.45;97167.25;5050259;28;20191;-78
2022/10/19 10:18:54;;;;;;;7.03;3.33;;;;;;;18.31;41.18;97164.19;5049876;28;20227;-79
2022/10/19 10:21:31;;;;;;;8.80;4.13;;;;;;;18.53;41.22;97152.94;5051182;28;20200;-78
2022/10/19 10:24:04;;;;;;;12.10;4.17;;;;;;;18.81;40.57;97162.16;5050561;28;20223;-79
2022/10/19 10:27:02;;;;;;;10.17;5.10;;;;;;;18.92;40.15;97163.00;5048876;28;20768;-79
2022/10/19 10:29:35;;;;;;;7.93;3.77;;;;;;;18.86;40.27;97152.16;5050012;28;20228;-80
2022/10/19 10:32:18;;;;;;;89.20;14.57;;;;;;;18.83;39.82;97153.25;5049828;28;20197;-79
2022/10/19 10:35:06;;;;;;;12.50;3.90;;;;;;;19.02;38.92;97144.78;5048425;28;20197;-79
2022/10/19 10:37:37;;;;;;;7.57;2.73;;;;;;;18.91;39.84;97147.38;5056777;28;20232;-78
2022/10/19 10:40:23;;;;;;;5.70;3.17;;;;;;;18.93;39.63;97134.97;5055366;28;20235;-79
2022/10/19 10:42:53;;;;;;;9.27;3.20;;;;;;;19.05;39.70;97136.66;5068713;28;20204;-79
2022/10/19 10:45:44;;;;;;;10.13;3.93;;;;;;;19.25;39.32;97134.13;5072072;28;20224;-80
2022/10/19 10:48:51;;;;;;;7.17;3.20;;;;;;;19.32;38.64;97108.22;5068523;28;20286;-80
2022/10/19 10:51:42;;;;;;;7.10;3.17;;;;;;;19.40;38.33;97103.22;5068134;28;20207;-80
2022/10/19 10:54:19;;;;;;;6.67;3.93;;;;;;;19.62;38.03;97104.97;5069511;28;20208;-81
2022/10/19 10:57:18;;;;;;;5.90;3.67;;;;;;;19.75;37.81;97110.88;5070199;28;20184;-80
2022/10/19 10:59:58;;;;;;;22.63;10.47;;;;;;;19.90;37.58;97101.75;5069658;28;20287;-79
2022/10/19 11:02:48;;;;;;;7.13;4.60;;;;;;;19.81;37.60;97070.97;5068769;28;20200;-78
2022/10/19 11:05:29;;;;;;;10.50;3.53;;;;;;;20.12;36.63;97078.00;5067645;28;20219;-77
2022/10/19 11:08:17;;;;;;;6.17;2.80;;;;;;;20.03;36.12;97091.91;5063198;28;20200;-81
2022/10/19 11:10:58;;;;;;;4.80;3.30;;;;;;;20.12;36.05;97085.88;5070052;28;20219;-83
2022/10/19 11:13:39;;;;;;;10.17;4.43;;;;;;;20.19;35.93;97080.03;5069552;28;20207;-79
2022/10/19 11:16:13;;;;;;;7.47;2.70;;;;;;;20.15;35.78;97072.50;5069651;28;20206;-80
2022/10/19 11:19:13;;;;;;;8.20;2.50;;;;;;;19.94;36.15;97076.91;5069978;28;20369;-79
2022/10/19 11:22:03;;;;;;;6.00;2.97;;;;;;;20.19;35.39;97073.91;5057485;28;20276;-79
2022/10/19 11:24:33;;;;;;;4.50;2.47;;;;;;;20.25;34.40;97069.00;5051057;28;20276;-78
2022/10/19 11:27:20;;;;;;;18.33;4.60;;;;;;;20.34;34.47;97066.56;5049320;28;20197;-79
2022/10/19 11:29:50;;;;;;;12.90;3.70;;;;;;;20.45;34.63;97063.84;5047953;28;20185;-79
2022/10/19 11:32:33;;;;;;;4.47;2.90;;;;;;;20.66;35.22;97067.28;5048697;28;20670;-80
2022/10/19 11:35:20;;;;;;;6.10;3.30;;;;;;;20.79;34.74;97068.72;5032301;28;20186;-81
2022/10/19 11:38:13;;;;;;;5.37;2.50;;;;;;;20.97;31.05;97061.88;5058173;28;20293;-80
2022/10/19 11:41:10;;;;;;;5.93;2.17;;;;;;;21.16;28.98;97066.41;5050419;28;20202;-80
2022/10/19 11:44:16;;;;;;;2.37;1.80;;;;;;;21.16;27.70;97060.31;5048376;28;20727;-81
2022/10/19 11:46:57;;;;;;;3.00;2.10;;;;;;;21.25;27.37;97055.03;5047425;28;20272;-80
2022/10/19 11:49:41;;;;;;;5.47;1.87;;;;;;;21.25;26.42;97046.31;5049098;28;20661;-80
2022/10/19 11:52:08;;;;;;;3.87;2.07;;;;;;;21.19;27.01;97033.69;5049781;28;20213;-79
2022/10/19 11:54:55;;;;;;;2.53;1.50;;;;;;;21.25;27.06;97039.25;5048832;28;20625;-80
2022/10/19 11:57:38;;;;;;;5.93;2.00;;;;;;;21.20;27.22;97022.19;5050234;28;20678;-80
2022/10/19 12:00:13;;;;;;;2.97;1.90;;;;;;;21.33;26.71;97035.94;5050256;28;20197;-80
2022/10/19 12:03:29;;;;;;;3.73;2.07;;;;;;;21.24;27.01;97028.84;5036172;28;20265;-79
2022/10/19 12:06:13;;;;;;;3.83;1.97;;;;;;;21.08;27.64;97007.47;5047354;28;20226;-79